Terminal Aerodrome Forecast
Issued by NWS Wilmington, OH

Home | Current Version | Previous Version | Text Only | Print | Product List | Glossary On
Versions: 1 2 3 4 5 6 7 8 9 10 11 12 13 14 15 16 17 18 19 20 21
000
FTUS41 KILN 202300
TAFDAY
TAF
KDAY 202338Z 2100/2124 26005KT P6SM SCT120 SCT250
     FM211100 23007KT P6SM -SHRA VCTS BKN035CB
      TEMPO 2112/2114 3SM -TSRA
     FM211500 23008KT P6SM VCSH SCT040 BKN150
     FM211900 24010KT P6SM VCTS BKN040CB
     FM212100 24010KT P6SM BKN040=

USA.gov is the U.S. government's official web portal to all federal, state and local government web resources and services.